createdAt,value
2019-03-23T00:00:15.713Z,33.58
2019-03-23T00:02:58.555Z,33.67
2019-03-23T00:05:40.700Z,33.37
2019-03-23T00:08:16.310Z,38.55
2019-03-23T00:10:58.259Z,35.63
2019-03-23T00:13:41.076Z,38.13
2019-03-23T00:16:17.461Z,44.57
2019-03-23T00:19:00.126Z,35.98
2019-03-23T00:21:41.933Z,37.23
2019-03-23T00:24:18.073Z,44.73
2019-03-23T00:26:53.870Z,40.70
2019-03-23T00:29:36.619Z,44.93
2019-03-23T00:32:12.511Z,45.28
2019-03-23T00:34:55.130Z,47.13
2019-03-23T00:37:36.925Z,40.03
2019-03-23T00:40:16.109Z,39.00
2019-03-23T00:42:58.678Z,45.52
2019-03-23T00:45:34.132Z,39.80
2019-03-23T00:48:16.618Z,37.55
2019-03-23T00:50:52.124Z,43.10
2019-03-23T00:53:35.055Z,44.30
2019-03-23T00:56:17.396Z,41.45
2019-03-23T00:58:59.911Z,46.65
2019-03-23T01:01:42.680Z,43.70
2019-03-23T01:04:24.594Z,42.67
2019-03-23T01:07:00.187Z,43.23
2019-03-23T01:09:42.062Z,43.28
2019-03-23T01:12:25.104Z,41.88
2019-03-23T01:15:06.846Z,44.18
2019-03-23T01:17:56.086Z,41.90
2019-03-23T01:20:49.102Z,42.20
2019-03-23T01:23:16.015Z,46.77
2019-03-23T01:25:58.934Z,41.63
2019-03-23T01:28:35.446Z,40.60
2019-03-23T01:31:18.456Z,41.88
2019-03-23T01:33:54.218Z,44.10
2019-03-23T01:36:35.913Z,49.50
2019-03-23T01:39:20.464Z,39.92
2019-03-23T01:42:02.724Z,45.43
2019-03-23T01:44:45.039Z,50.60
2019-03-23T01:47:27.662Z,45.17
2019-03-23T01:50:03.413Z,53.50
2019-03-23T01:52:46.466Z,48.73
2019-03-23T01:55:22.194Z,48.23
2019-03-23T01:58:04.490Z,48.90
2019-03-23T02:00:43.279Z,51.10
2019-03-23T02:03:25.430Z,48.70
2019-03-23T02:06:01.785Z,48.40
2019-03-23T02:08:44.095Z,53.13
2019-03-23T02:11:19.713Z,50.88
2019-03-23T02:14:02.150Z,62.08
2019-03-23T02:16:37.710Z,62.15
2019-03-23T02:19:21.139Z,57.55
2019-03-23T02:22:03.308Z,69.87
2019-03-23T02:24:45.681Z,57.88
2019-03-23T02:27:21.627Z,55.65
2019-03-23T02:30:04.636Z,61.45
2019-03-23T02:32:47.490Z,60.95
2019-03-23T02:35:23.047Z,58.87
2019-03-23T02:38:05.800Z,59.38
2019-03-23T02:40:47.914Z,61.02
2019-03-23T02:43:31.219Z,57.88
2019-03-23T02:46:07.035Z,56.95
2019-03-23T02:48:49.652Z,58.38
2019-03-23T02:51:25.408Z,55.45
2019-03-23T02:54:08.228Z,55.67
2019-03-23T02:56:58.416Z,58.67
2019-03-23T02:59:34.241Z,58.50
2019-03-23T03:02:16.786Z,55.15
2019-03-23T03:04:59.435Z,58.85
2019-03-23T03:07:43.784Z,55.67
2019-03-23T03:10:55.170Z,57.08
2019-03-23T03:13:30.785Z,57.15
2019-03-23T03:16:13.476Z,56.60
2019-03-23T03:18:55.666Z,60.38
2019-03-23T03:21:32.066Z,63.28
2019-03-23T03:24:14.748Z,62.03
2019-03-23T03:26:57.296Z,60.92
2019-03-23T03:29:39.029Z,62.65
2019-03-23T03:32:21.494Z,59.42
2019-03-23T03:35:10.363Z,65.67
2019-03-23T03:37:57.040Z,66.05
2019-03-23T03:40:36.397Z,70.25
2019-03-23T03:43:18.891Z,63.68
2019-03-23T03:45:54.597Z,68.33
2019-03-23T03:48:37.419Z,68.62
2019-03-23T03:51:13.797Z,66.10
2019-03-23T03:53:55.539Z,69.47
2019-03-23T03:56:31.413Z,72.22
2019-03-23T03:59:13.227Z,67.87
2019-03-23T04:01:49.670Z,70.12
2019-03-23T04:04:32.103Z,67.85
2019-03-23T04:07:08.558Z,69.42
2019-03-23T04:09:51.702Z,64.40
2019-03-23T04:12:27.436Z,69.27
2019-03-23T04:15:09.168Z,72.65
2019-03-23T04:17:58.041Z,67.90
2019-03-23T04:20:40.891Z,65.05
2019-03-23T04:23:17.154Z,66.23
2019-03-23T04:25:59.944Z,63.92
2019-03-23T04:28:35.661Z,64.80
2019-03-23T04:31:18.742Z,64.55
2019-03-23T04:33:54.693Z,65.15
2019-03-23T04:36:37.861Z,64.03
2019-03-23T04:39:14.794Z,59.85
2019-03-23T04:41:58.136Z,64.03
2019-03-23T04:44:40.284Z,62.60
2019-03-23T04:47:22.994Z,64.82
2019-03-23T04:49:59.355Z,64.92
2019-03-23T04:52:41.830Z,66.82
2019-03-23T04:55:26.288Z,68.10
2019-03-23T04:58:08.586Z,72.50
2019-03-23T05:00:51.674Z,80.12
2019-03-23T05:03:41.196Z,78.83
2019-03-23T05:06:23.743Z,82.95
2019-03-23T05:08:59.574Z,78.65
2019-03-23T05:11:41.958Z,77.80
2019-03-23T05:14:18.388Z,78.70
2019-03-23T05:17:00.934Z,85.12
2019-03-23T05:19:37.456Z,89.58
2019-03-23T05:22:20.051Z,81.97
2019-03-23T05:24:55.542Z,90.05
2019-03-23T05:27:38.820Z,86.87
2019-03-23T05:30:16.218Z,92.88
2019-03-23T05:32:59.374Z,87.12
2019-03-23T05:35:41.715Z,81.32
2019-03-23T05:38:23.867Z,83.22
2019-03-23T05:41:06.894Z,84.28
2019-03-23T05:43:42.580Z,85.50
2019-03-23T05:46:25.049Z,77.10
2019-03-23T05:49:00.750Z,81.00
2019-03-23T05:51:43.222Z,80.12
2019-03-23T05:54:32.727Z,75.10
2019-03-23T05:57:15.090Z,79.20
2019-03-23T05:59:51.425Z,76.10
2019-03-23T06:02:33.618Z,78.28
2019-03-23T06:05:16.351Z,78.25
2019-03-23T06:07:58.597Z,77.15
2019-03-23T06:10:35.054Z,75.10
2019-03-23T06:13:16.824Z,81.25
2019-03-23T06:15:59.522Z,75.03
2019-03-23T06:18:35.365Z,72.58
2019-03-23T06:21:17.954Z,71.42
2019-03-23T06:24:00.182Z,70.83
2019-03-23T06:26:43.471Z,72.60
2019-03-23T06:29:19.102Z,70.97
2019-03-23T06:32:02.266Z,71.75
2019-03-23T06:34:37.857Z,72.78
2019-03-23T06:37:19.764Z,69.25
2019-03-23T06:39:55.254Z,74.72
2019-03-23T06:42:38.590Z,73.28
2019-03-23T06:45:17.281Z,69.45
2019-03-23T06:48:00.702Z,71.75
2019-03-23T06:50:43.307Z,65.65
2019-03-23T06:53:33.277Z,70.75
2019-03-23T06:56:15.511Z,63.90
2019-03-23T06:59:01.037Z,70.20
2019-03-23T07:01:43.606Z,71.70
2019-03-23T07:04:19.916Z,75.65
2019-03-23T07:07:03.192Z,66.47
2019-03-23T07:09:45.641Z,70.30
2019-03-23T07:12:21.269Z,68.45
2019-03-23T07:15:04.417Z,67.62
2019-03-23T07:17:53.678Z,71.02
2019-03-23T07:20:35.502Z,71.95
2019-03-23T07:23:11.820Z,67.17
2019-03-23T07:25:54.218Z,69.17
2019-03-23T07:28:37.275Z,70.92
2019-03-23T07:31:20.175Z,81.25
2019-03-23T07:33:56.562Z,75.37
2019-03-23T07:36:32.287Z,72.22
2019-03-23T07:39:15.341Z,67.35
2019-03-23T07:41:51.262Z,64.05
2019-03-23T07:44:33.422Z,63.80
2019-03-23T07:47:15.588Z,59.30
2019-03-23T07:49:52.003Z,55.65
2019-03-23T07:52:34.755Z,63.28
2019-03-23T07:55:29.980Z,55.00
2019-03-23T07:58:11.897Z,58.78
2019-03-23T08:00:54.776Z,56.77
2019-03-23T08:03:37.289Z,55.53
2019-03-23T08:06:13.198Z,56.70
2019-03-23T08:08:55.308Z,59.27
2019-03-23T08:11:37.473Z,59.53
2019-03-23T08:14:13.868Z,54.23
2019-03-23T08:16:56.790Z,56.77
2019-03-23T08:19:32.471Z,59.30
2019-03-23T08:22:15.217Z,62.17
2019-03-23T08:24:57.251Z,56.00
2019-03-23T08:27:33.670Z,52.88
2019-03-23T08:30:16.514Z,56.15
2019-03-23T08:32:59.238Z,52.85
2019-03-23T08:35:43.122Z,51.60
2019-03-23T08:41:00.224Z,45.92
2019-03-23T08:43:35.714Z,45.83
2019-03-23T08:46:18.595Z,46.18
2019-03-23T08:49:00.982Z,50.57
2019-03-23T08:51:36.758Z,48.52
2019-03-23T08:54:19.284Z,41.33
2019-03-23T08:57:08.633Z,41.35
2019-03-23T08:59:44.467Z,43.25
2019-03-23T09:02:26.796Z,45.12
2019-03-23T09:05:09.289Z,44.48
2019-03-23T09:07:52.702Z,46.00
2019-03-23T09:10:28.347Z,48.75
2019-03-23T09:13:10.703Z,47.23
2019-03-23T09:15:53.408Z,54.77
2019-03-23T09:18:36.221Z,43.47
2019-03-23T09:21:18.629Z,46.13
2019-03-23T09:23:54.639Z,52.88
2019-03-23T09:26:30.505Z,59.85
2019-03-23T09:29:13.583Z,46.40
2019-03-23T09:31:56.764Z,42.00
2019-03-23T09:34:53.655Z,55.45
2019-03-23T09:37:29.472Z,62.05
2019-03-23T09:40:12.623Z,47.83
2019-03-23T09:43:01.483Z,50.88
2019-03-23T09:45:37.805Z,45.80
2019-03-23T09:48:20.318Z,74.72
2019-03-23T09:51:03.592Z,102.80
2019-03-23T09:53:39.416Z,63.87
2019-03-23T09:56:21.527Z,78.62
2019-03-23T09:59:04.009Z,46.00
2019-03-23T10:01:46.892Z,56.00
2019-03-23T10:04:23.000Z,47.57
2019-03-23T10:07:05.971Z,48.48
2019-03-23T10:09:48.056Z,56.40
2019-03-23T10:12:37.356Z,51.18
2019-03-23T10:15:13.514Z,67.50
2019-03-23T10:17:56.205Z,46.95
2019-03-23T10:20:38.102Z,43.78
2019-03-23T10:23:21.035Z,44.18
2019-03-23T10:26:02.814Z,44.53
2019-03-23T10:28:38.430Z,52.95
2019-03-23T10:31:21.028Z,44.98
2019-03-23T10:33:56.612Z,58.20
2019-03-23T10:36:40.834Z,51.40
2019-03-23T10:39:29.725Z,44.73
2019-03-23T10:42:05.918Z,44.00
2019-03-23T10:44:48.381Z,39.83
2019-03-23T10:47:25.049Z,42.17
2019-03-23T10:50:07.240Z,44.13
2019-03-23T10:52:43.375Z,40.92
2019-03-23T10:55:25.711Z,44.30
2019-03-23T10:58:15.484Z,41.00
2019-03-23T11:00:58.037Z,43.92
2019-03-23T11:03:34.174Z,42.83
2019-03-23T11:06:17.555Z,43.00
2019-03-23T11:08:53.302Z,43.75
2019-03-23T11:11:35.793Z,41.60
2019-03-23T11:14:18.831Z,43.60
2019-03-23T11:17:00.819Z,40.85
2019-03-23T11:19:37.487Z,43.98
2019-03-23T11:22:19.626Z,44.73
2019-03-23T11:25:02.818Z,38.83
2019-03-23T11:27:39.554Z,44.15
2019-03-23T11:30:23.312Z,42.55
2019-03-23T11:32:59.967Z,41.30
2019-03-23T11:35:42.731Z,46.08
2019-03-23T11:38:18.415Z,45.83
2019-03-23T11:41:01.198Z,45.43
2019-03-23T11:43:43.473Z,46.73
2019-03-23T11:46:26.643Z,47.48
2019-03-23T11:49:02.687Z,43.52
2019-03-23T11:51:45.635Z,42.25
2019-03-23T11:54:21.283Z,47.25
2019-03-23T11:57:03.349Z,43.87
2019-03-23T11:59:39.783Z,47.00
2019-03-23T12:02:22.737Z,53.23
2019-03-23T12:04:58.660Z,44.90
2019-03-23T12:07:40.709Z,40.73
2019-03-23T12:10:28.087Z,46.02
2019-03-23T12:13:04.041Z,45.25
2019-03-23T12:15:47.150Z,42.50
2019-03-23T12:18:29.625Z,46.13
2019-03-23T12:21:12.402Z,45.10
2019-03-23T12:23:55.262Z,45.10
2019-03-23T12:26:31.266Z,47.73
2019-03-23T12:29:07.076Z,49.70
2019-03-23T12:31:49.578Z,55.75
2019-03-23T12:34:31.350Z,45.60
2019-03-23T12:37:07.397Z,51.95
2019-03-23T12:39:50.126Z,60.92
2019-03-23T12:42:33.111Z,46.75
2019-03-23T12:45:08.685Z,43.65
2019-03-23T12:47:44.510Z,41.02
2019-03-23T12:50:21.742Z,47.55
2019-03-23T12:52:58.119Z,45.15
2019-03-23T12:55:39.872Z,47.53
2019-03-23T12:58:16.144Z,54.65
2019-03-23T13:00:58.200Z,44.60
2019-03-23T13:03:40.591Z,40.90
2019-03-23T13:06:23.269Z,44.05
2019-03-23T13:09:06.364Z,40.85
2019-03-23T13:11:48.420Z,45.90
2019-03-23T13:14:31.188Z,45.73
2019-03-23T13:17:13.353Z,43.87
2019-03-23T13:19:49.747Z,40.90
2019-03-23T13:22:31.484Z,40.95
2019-03-23T13:25:07.480Z,39.00
2019-03-23T13:27:50.252Z,39.48
2019-03-23T13:30:32.626Z,43.77
2019-03-23T13:33:15.069Z,39.48
2019-03-23T13:35:51.445Z,42.83
2019-03-23T13:38:34.047Z,47.08
2019-03-23T13:41:09.554Z,42.40
2019-03-23T13:43:51.874Z,52.20
2019-03-23T13:46:28.104Z,44.90
2019-03-23T13:49:12.657Z,50.43
2019-03-23T13:51:48.071Z,54.20
2019-03-23T13:54:31.164Z,46.00
2019-03-23T13:57:07.476Z,54.80
2019-03-23T13:59:49.606Z,50.33
2019-03-23T14:02:25.653Z,48.65
2019-03-23T14:05:15.615Z,53.23
2019-03-23T14:07:45.960Z,52.73
2019-03-23T14:10:29.267Z,53.63
2019-03-23T14:13:11.836Z,55.70
2019-03-23T14:15:48.191Z,55.28
2019-03-23T14:18:30.982Z,53.20
2019-03-23T14:21:15.064Z,51.60
2019-03-23T14:23:51.079Z,66.65
2019-03-23T14:26:33.979Z,52.20
2019-03-23T14:29:16.885Z,54.03
2019-03-23T14:31:52.742Z,58.57
2019-03-23T14:34:35.202Z,52.48
2019-03-23T14:37:10.922Z,50.43
2019-03-23T14:39:52.888Z,57.08
2019-03-23T14:42:35.377Z,47.78
2019-03-23T14:45:18.598Z,52.98
2019-03-23T14:47:54.623Z,51.40
2019-03-23T14:50:30.985Z,54.40
2019-03-23T14:53:13.420Z,57.33
2019-03-23T14:55:49.477Z,56.42
2019-03-23T14:58:31.736Z,51.10
2019-03-23T15:01:14.467Z,51.73
2019-03-23T15:03:50.846Z,50.80
2019-03-23T15:06:33.347Z,49.42
2019-03-23T15:09:15.985Z,52.17
2019-03-23T15:11:52.182Z,63.52
2019-03-23T15:14:35.277Z,77.80
2019-03-23T15:17:20.459Z,80.28
2019-03-23T15:19:56.152Z,86.65
2019-03-23T15:22:38.991Z,84.92
2019-03-23T15:25:16.644Z,81.57
2019-03-23T15:27:52.166Z,95.53
2019-03-23T15:30:34.492Z,88.50
2019-03-23T15:33:11.202Z,82.10
2019-03-23T15:35:52.942Z,94.55
2019-03-23T15:38:35.379Z,92.82
2019-03-23T15:41:17.196Z,89.03
2019-03-23T15:44:06.275Z,92.60
2019-03-23T15:47:08.638Z,90.07
2019-03-23T15:49:58.183Z,81.10
2019-03-23T15:52:41.209Z,96.02
2019-03-23T15:55:18.124Z,89.80
2019-03-23T15:58:01.491Z,97.75
2019-03-23T16:00:44.693Z,78.02
2019-03-23T16:03:34.124Z,93.15
2019-03-23T16:06:17.180Z,99.15
2019-03-23T16:09:20.876Z,105.90
2019-03-23T16:12:10.082Z,96.97
2019-03-23T16:14:52.930Z,96.75
2019-03-23T16:17:35.595Z,92.08
2019-03-23T16:20:26.393Z,94.32
2019-03-23T16:23:09.247Z,85.65
2019-03-23T16:25:44.774Z,84.47
2019-03-23T16:28:27.152Z,73.62
2019-03-23T16:31:10.147Z,80.22
2019-03-23T16:33:46.464Z,71.45
2019-03-23T16:36:28.996Z,68.00
2019-03-23T16:39:14.028Z,54.58
2019-03-23T16:41:56.743Z,59.77
2019-03-23T16:44:50.759Z,51.20
2019-03-23T16:50:21.535Z,48.92
2019-03-23T16:52:57.709Z,46.40
2019-03-23T16:55:40.890Z,53.68
2019-03-23T16:58:16.628Z,51.95
2019-03-23T17:00:58.518Z,63.90
2019-03-23T17:03:34.244Z,71.67
2019-03-23T17:06:16.820Z,61.70
2019-03-23T17:08:53.199Z,53.40
2019-03-23T17:11:36.116Z,41.60
2019-03-23T17:14:12.800Z,52.87
2019-03-23T17:16:55.356Z,43.73
2019-03-23T17:20:03.849Z,43.73
2019-03-23T17:22:39.482Z,40.03
2019-03-23T17:25:22.825Z,46.08
2019-03-23T17:28:12.755Z,37.90
2019-03-23T17:30:55.479Z,42.78
2019-03-23T17:33:38.495Z,44.25
2019-03-23T17:36:27.207Z,46.45
2019-03-23T17:39:04.925Z,53.10
2019-03-23T17:42:06.872Z,38.70
2019-03-23T17:44:48.934Z,38.42
2019-03-23T17:47:24.889Z,37.48
2019-03-23T17:50:08.237Z,42.45
2019-03-23T17:52:43.993Z,43.70
2019-03-23T17:55:26.309Z,42.67
2019-03-23T17:58:08.594Z,43.78
2019-03-23T18:00:51.476Z,48.30
2019-03-23T18:03:27.887Z,45.90
2019-03-23T18:06:11.530Z,48.05
2019-03-23T18:08:53.426Z,42.38
2019-03-23T18:11:29.429Z,36.90
2019-03-23T18:14:11.778Z,44.25
2019-03-23T18:16:54.957Z,41.77
2019-03-23T18:19:22.006Z,38.15
2019-03-23T18:22:11.395Z,45.55
2019-03-23T18:25:01.124Z,44.45
2019-03-23T18:27:50.565Z,35.45
2019-03-23T18:30:56.828Z,34.35
2019-03-23T18:33:32.386Z,44.30
2019-03-23T18:36:14.983Z,45.05
2019-03-23T18:39:04.431Z,45.15
2019-03-23T18:41:53.750Z,45.40
2019-03-23T18:44:20.808Z,48.80
2019-03-23T18:47:09.411Z,54.73
2019-03-23T18:49:59.478Z,64.53
2019-03-23T18:52:48.681Z,44.20
2019-03-23T18:55:38.190Z,39.98
2019-03-23T18:58:27.718Z,39.90
2019-03-23T19:01:16.782Z,33.98
2019-03-23T19:04:05.962Z,37.10
2019-03-23T19:06:55.349Z,42.48
2019-03-23T19:12:10.971Z,40.17
2019-03-23T19:15:00.626Z,35.70
2019-03-23T19:17:27.677Z,40.30
2019-03-23T19:25:18.327Z,38.78
2019-03-23T19:28:00.649Z,39.80
2019-03-23T19:30:43.072Z,39.92
2019-03-23T19:33:25.500Z,39.23
2019-03-23T19:36:14.317Z,27.65
2019-03-23T19:39:03.356Z,39.92
2019-03-23T19:41:52.653Z,43.05
2019-03-23T19:44:42.399Z,38.88
2019-03-23T19:52:25.238Z,42.65
2019-03-23T19:57:40.711Z,45.70
2019-03-23T20:00:34.503Z,48.42
2019-03-23T20:03:23.314Z,47.98
2019-03-23T20:06:12.867Z,51.68
2019-03-23T20:08:55.465Z,47.58
2019-03-23T20:11:31.345Z,58.23
2019-03-23T20:14:14.486Z,53.85
2019-03-23T20:16:57.101Z,73.97
2019-03-23T20:19:39.678Z,62.90
2019-03-23T20:22:22.942Z,52.80
2019-03-23T20:25:12.972Z,64.82
2019-03-23T20:27:56.172Z,55.43
2019-03-23T20:30:38.903Z,51.88
2019-03-23T20:33:22.464Z,48.92
2019-03-23T20:35:58.830Z,52.10
2019-03-23T20:38:41.955Z,52.43
2019-03-23T20:41:17.870Z,45.45
2019-03-23T20:44:09.129Z,48.05
2019-03-23T20:46:40.405Z,43.30
2019-03-23T20:49:23.750Z,43.45
2019-03-23T20:51:59.977Z,49.53
2019-03-23T20:54:42.794Z,47.15
2019-03-23T20:57:23.968Z,47.57
2019-03-23T21:00:03.147Z,46.92
2019-03-23T21:02:39.607Z,39.65
2019-03-23T21:05:36.260Z,45.55
2019-03-23T21:08:12.775Z,47.33
2019-03-23T21:13:22.163Z,51.50
2019-03-23T21:16:04.593Z,45.20
2019-03-23T21:21:20.233Z,37.60
2019-03-23T21:24:03.192Z,44.58
2019-03-23T21:26:39.118Z,48.13
2019-03-23T21:29:14.286Z,37.75
2019-03-23T21:31:57.147Z,48.10
2019-03-23T21:37:12.930Z,34.65
2019-03-23T21:39:55.082Z,48.25
2019-03-23T21:42:31.629Z,39.75
2019-03-23T21:45:08.799Z,41.58
2019-03-23T21:47:51.441Z,45.95
2019-03-23T21:50:18.478Z,35.35
2019-03-23T21:53:07.798Z,41.58
2019-03-23T21:55:57.438Z,41.23
2019-03-23T21:58:46.712Z,41.80
2019-03-23T22:01:36.319Z,40.88
2019-03-23T22:04:25.553Z,36.53
2019-03-23T22:07:14.360Z,43.50
2019-03-23T22:10:03.791Z,36.45
2019-03-23T22:12:53.332Z,41.90
2019-03-23T22:15:36.323Z,39.03
2019-03-23T22:18:18.277Z,33.42
2019-03-23T22:21:07.626Z,36.63
2019-03-23T22:23:56.863Z,36.90
2019-03-23T22:31:46.299Z,42.17
2019-03-23T22:34:22.855Z,40.15
2019-03-23T22:36:52.302Z,40.55
2019-03-23T22:39:28.317Z,36.08
2019-03-23T22:41:57.832Z,42.78
2019-03-23T22:44:27.347Z,37.45
2019-03-23T22:47:03.908Z,41.92
2019-03-23T22:49:33.352Z,39.80
2019-03-23T22:52:09.966Z,40.83
2019-03-23T22:54:46.150Z,30.65
2019-03-23T22:57:22.351Z,33.18
2019-03-23T22:59:58.525Z,42.83
2019-03-23T23:02:34.811Z,38.20
2019-03-23T23:05:06.573Z,40.52
2019-03-23T23:07:42.823Z,47.17
2019-03-23T23:10:12.578Z,35.40
2019-03-23T23:12:48.667Z,40.70
2019-03-23T23:15:24.892Z,42.55
2019-03-23T23:18:01.368Z,44.18
2019-03-23T23:20:36.913Z,40.90
2019-03-23T23:23:06.575Z,39.13
2019-03-23T23:25:42.623Z,36.80
2019-03-23T23:28:18.624Z,41.58
2019-03-23T23:30:54.174Z,37.08
2019-03-23T23:33:30.401Z,35.17
2019-03-23T23:36:06.245Z,34.58
2019-03-23T23:38:35.701Z,33.42
2019-03-23T23:41:12.371Z,37.23
2019-03-23T23:43:48.262Z,34.50
2019-03-23T23:46:24.764Z,38.63
2019-03-23T23:49:06.962Z,39.65
2019-03-23T23:51:36.539Z,39.23
2019-03-23T23:54:12.671Z,34.40
2019-03-23T23:56:42.167Z,33.98
2019-03-23T23:59:18.808Z,40.58
